Terminal Aerodrome Forecast
Issued by NWS

Home | Current Version | Previous Version | Text Only | Print | Product List | Glossary On
Versions: 1 2 3 4 5 6 7 8 9 10 11 12 13 14 15 16
309
FTUS46 KPDT 240647 AAA
TAFDLS
TAF AMD
KDLS 240647Z 2407/2506 31008KT P6SM VCSH BKN030 OVC050
     FM241000 29008KT 4SM -SN OVC040
     FM241600 30018G28KT 5SM -SN BKN030
     FM241800 30022G32KT P6SM BKN050=

USA.gov is the U.S. government's official web portal to all federal, state and local government web resources and services.